KPOE/POE METAR and TAF weather

Enter ICAO airport designator
Station Type Date Time Source
KPOE METAR 2021/04/18 02:58 UTC NOAA

KPOE 180258Z AUTO 33006KT 10SM OVC120 12/11 A3005 RMK AO2 SLP178 T01240110 53026


Station Type Date Time Source
KPOE Decoded METAR 2021/04/18 02:58 UTC NOAA

Fort Polk, Polk AAF Ft Polk, LA, United States (KPOE) 31-03N 093-11-38W
Apr 17, 2021 - 10:58 PM EDT / 2021.04.18 0258 UTC
Wind: from the NNW (330 degrees) at 7 MPH (6 KT):0
Visibility: 10 mile(s):0
Sky conditions: overcast
Temperature: 54.3 F (12.4 C)
Dew Point: 51.8 F (11.0 C)
Relative Humidity: 91%
Pressure (altimeter): 30.05 in. Hg (1017 hPa)
Pressure tendency: 0.08 inches (2.6 hPa) higher than three hours ago
ob: KPOE 180258Z AUTO 33006KT 10SM OVC120 12/11 A3005 RMK AO2 SLP178 T01240110 53026
cycle: 3

Station Type Date Time Source
KPOE TAF 2021/04/18 00:34 UTC NOAA

TAF KPOE 180000Z 1800/1906 35009KT 9999 BKN020 OVC100 QNH2995INS
BECMG 1806/1807 35009KT 9999 SCT030 QNH3000INS
BECMG 1808/1809 35009KT 8000 BR BKN010 QNH2999INS
BECMG 1813/1814 35009KT 9999 NSW BKN150 QNH2998INS
TEMPO 1815/1818 34010G15KT
BECMG 1823/1824 36006KT 9999 BKN150 QNH3000INS TX19/1820Z TN11/1812Z

Example: see airport list